<?xml version="1.0" encoding="UTF-8" standalone="no" ?>
<gpx xmlns="http://www.topografix.com/GPX/1/1" xmlns:xsi="http://www.w3.org/2001/XMLSchema-instance" xsi:schemaLocation="http://www.topografix.com/GPX/1/1 http://www.topografix.com/GPX/1/1/gpx.xsd" version="1.1" creator="VisuGPX - https://www.visugpx.com">
  <metadata>
    <name>8 mai 2021, Saint-Paul de Varces.</name>
    <desc><![CDATA[8 mai 2021, Saint-Paul de Varces.]]></desc>
  </metadata>
  <trk>
    <name><![CDATA[2021-05-08 17:11:44]]></name>
    <trkseg>
      <trkpt lat="45.0803" lon="5.66332">
        <ele>304.7</ele>
        <time>2021-05-08T12:14:13Z</time>
      </trkpt>
      <trkpt lat="45.08031" lon="5.6633">
        <ele>304.8</ele>
        <time>2021-05-08T12:14:37Z</time>
      </trkpt>
      <trkpt lat="45.08031" lon="5.6633">
        <ele>304.8</ele>
        <time>2021-05-08T12:14:59Z</time>
      </trkpt>
      <trkpt lat="45.08029" lon="5.66329">
        <ele>304.8</ele>
        <time>2021-05-08T12:15:27Z</time>
      </trkpt>
      <trkpt lat="45.08021" lon="5.66322">
        <ele>305.2</ele>
        <time>2021-05-08T12:15:44Z</time>
      </trkpt>
      <trkpt lat="45.08005" lon="5.6631">
        <ele>306</ele>
        <time>2021-05-08T12:16:03Z</time>
      </trkpt>
      <trkpt lat="45.07992" lon="5.66304">
        <ele>306.3</ele>
        <time>2021-05-08T12:16:21Z</time>
      </trkpt>
      <trkpt lat="45.07981" lon="5.66296">
        <ele>306.6</ele>
        <time>2021-05-08T12:16:35Z</time>
      </trkpt>
      <trkpt lat="45.07974" lon="5.6629">
        <ele>306.9</ele>
        <time>2021-05-08T12:16:51Z</time>
      </trkpt>
      <trkpt lat="45.07965" lon="5.66284">
        <ele>307.2</ele>
        <time>2021-05-08T12:17:05Z</time>
      </trkpt>
      <trkpt lat="45.07957" lon="5.66272">
        <ele>307.8</ele>
        <time>2021-05-08T12:17:20Z</time>
      </trkpt>
      <trkpt lat="45.07956" lon="5.66269">
        <ele>308</ele>
        <time>2021-05-08T12:17:34Z</time>
      </trkpt>
      <trkpt lat="45.07951" lon="5.66267">
        <ele>308.1</ele>
        <time>2021-05-08T12:17:48Z</time>
      </trkpt>
      <trkpt lat="45.07941" lon="5.66274">
        <ele>307.6</ele>
        <time>2021-05-08T12:18:02Z</time>
      </trkpt>
      <trkpt lat="45.07936" lon="5.66276">
        <ele>307.5</ele>
        <time>2021-05-08T12:18:09Z</time>
      </trkpt>
      <trkpt lat="45.07927" lon="5.66281">
        <ele>307.2</ele>
        <time>2021-05-08T12:18:25Z</time>
      </trkpt>
      <trkpt lat="45.07926" lon="5.6628">
        <ele>307.2</ele>
        <time>2021-05-08T12:18:26Z</time>
      </trkpt>
      <trkpt lat="45.07905" lon="5.66276">
        <ele>307.6</ele>
        <time>2021-05-08T12:18:47Z</time>
      </trkpt>
      <trkpt lat="45.0789" lon="5.66272">
        <ele>308</ele>
        <time>2021-05-08T12:19:04Z</time>
      </trkpt>
      <trkpt lat="45.07873" lon="5.66271">
        <ele>308.3</ele>
        <time>2021-05-08T12:19:23Z</time>
      </trkpt>
      <trkpt lat="45.07854" lon="5.66267">
        <ele>308.7</ele>
        <time>2021-05-08T12:19:43Z</time>
      </trkpt>
      <trkpt lat="45.07837" lon="5.66261">
        <ele>309.3</ele>
        <time>2021-05-08T12:20:01Z</time>
      </trkpt>
      <trkpt lat="45.07822" lon="5.66259">
        <ele>309.5</ele>
        <time>2021-05-08T12:20:19Z</time>
      </trkpt>
      <trkpt lat="45.07809" lon="5.66259">
        <ele>309.6</ele>
        <time>2021-05-08T12:20:34Z</time>
      </trkpt>
      <trkpt lat="45.07794" lon="5.66255">
        <ele>309.8</ele>
        <time>2021-05-08T12:20:51Z</time>
      </trkpt>
      <trkpt lat="45.07787" lon="5.66252">
        <ele>309.9</ele>
        <time>2021-05-08T12:20:58Z</time>
      </trkpt>
      <trkpt lat="45.07773" lon="5.66249">
        <ele>310.1</ele>
        <time>2021-05-08T12:21:15Z</time>
      </trkpt>
      <trkpt lat="45.07761" lon="5.66248">
        <ele>310.1</ele>
        <time>2021-05-08T12:21:31Z</time>
      </trkpt>
      <trkpt lat="45.07746" lon="5.66245">
        <ele>310.4</ele>
        <time>2021-05-08T12:21:47Z</time>
      </trkpt>
      <trkpt lat="45.07736" lon="5.66251">
        <ele>310.6</ele>
        <time>2021-05-08T12:22:04Z</time>
      </trkpt>
      <trkpt lat="45.07732" lon="5.66249">
        <ele>310.9</ele>
        <time>2021-05-08T12:22:21Z</time>
      </trkpt>
      <trkpt lat="45.07722" lon="5.66252">
        <ele>311.3</ele>
        <time>2021-05-08T12:22:35Z</time>
      </trkpt>
      <trkpt lat="45.07713" lon="5.66259">
        <ele>311.5</ele>
        <time>2021-05-08T12:22:50Z</time>
      </trkpt>
      <trkpt lat="45.07698" lon="5.66263">
        <ele>312.1</ele>
        <time>2021-05-08T12:23:05Z</time>
      </trkpt>
      <trkpt lat="45.07689" lon="5.66258">
        <ele>312.6</ele>
        <time>2021-05-08T12:23:20Z</time>
      </trkpt>
      <trkpt lat="45.07681" lon="5.66248">
        <ele>313.3</ele>
        <time>2021-05-08T12:23:33Z</time>
      </trkpt>
      <trkpt lat="45.07676" lon="5.66241">
        <ele>313.6</ele>
        <time>2021-05-08T12:23:48Z</time>
      </trkpt>
      <trkpt lat="45.0767" lon="5.66235">
        <ele>313.9</ele>
        <time>2021-05-08T12:24:03Z</time>
      </trkpt>
      <trkpt lat="45.07661" lon="5.66226">
        <ele>314</ele>
        <time>2021-05-08T12:24:17Z</time>
      </trkpt>
      <trkpt lat="45.07653" lon="5.66215">
        <ele>314.1</ele>
        <time>2021-05-08T12:24:31Z</time>
      </trkpt>
      <trkpt lat="45.07638" lon="5.66201">
        <ele>314.2</ele>
        <time>2021-05-08T12:24:52Z</time>
      </trkpt>
      <trkpt lat="45.07628" lon="5.66188">
        <ele>314.3</ele>
        <time>2021-05-08T12:25:08Z</time>
      </trkpt>
      <trkpt lat="45.07624" lon="5.66184">
        <ele>314.4</ele>
        <time>2021-05-08T12:25:13Z</time>
      </trkpt>
      <trkpt lat="45.07615" lon="5.6617">
        <ele>314.6</ele>
        <time>2021-05-08T12:25:29Z</time>
      </trkpt>
      <trkpt lat="45.07612" lon="5.66168">
        <ele>314.6</ele>
        <time>2021-05-08T12:25:44Z</time>
      </trkpt>
      <trkpt lat="45.07605" lon="5.66159">
        <ele>315</ele>
        <time>2021-05-08T12:25:59Z</time>
      </trkpt>
      <trkpt lat="45.07603" lon="5.66156">
        <ele>315.1</ele>
        <time>2021-05-08T12:26:19Z</time>
      </trkpt>
      <trkpt lat="45.07602" lon="5.66153">
        <ele>315.2</ele>
        <time>2021-05-08T12:26:41Z</time>
      </trkpt>
      <trkpt lat="45.07592" lon="5.66141">
        <ele>315.8</ele>
        <time>2021-05-08T12:26:56Z</time>
      </trkpt>
      <trkpt lat="45.07581" lon="5.66128">
        <ele>316.4</ele>
        <time>2021-05-08T12:27:11Z</time>
      </trkpt>
      <trkpt lat="45.07571" lon="5.66118">
        <ele>316.7</ele>
        <time>2021-05-08T12:27:25Z</time>
      </trkpt>
      <trkpt lat="45.07566" lon="5.66115">
        <ele>316.8</ele>
        <time>2021-05-08T12:27:39Z</time>
      </trkpt>
      <trkpt lat="45.07555" lon="5.66103">
        <ele>317.1</ele>
        <time>2021-05-08T12:27:56Z</time>
      </trkpt>
      <trkpt lat="45.07545" lon="5.66091">
        <ele>317.4</ele>
        <time>2021-05-08T12:28:10Z</time>
      </trkpt>
      <trkpt lat="45.07545" lon="5.66093">
        <ele>317.3</ele>
        <time>2021-05-08T12:28:24Z</time>
      </trkpt>
      <trkpt lat="45.07539" lon="5.66088">
        <ele>317.4</ele>
        <time>2021-05-08T12:28:41Z</time>
      </trkpt>
      <trkpt lat="45.0753" lon="5.66077">
        <ele>317.6</ele>
        <time>2021-05-08T12:28:57Z</time>
      </trkpt>
      <trkpt lat="45.07518" lon="5.6607">
        <ele>317.8</ele>
        <time>2021-05-08T12:29:14Z</time>
      </trkpt>
      <trkpt lat="45.07507" lon="5.66061">
        <ele>318.2</ele>
        <time>2021-05-08T12:29:31Z</time>
      </trkpt>
      <trkpt lat="45.07494" lon="5.66053">
        <ele>318.7</ele>
        <time>2021-05-08T12:29:49Z</time>
      </trkpt>
      <trkpt lat="45.07484" lon="5.66044">
        <ele>319.5</ele>
        <time>2021-05-08T12:30:04Z</time>
      </trkpt>
      <trkpt lat="45.07473" lon="5.66038">
        <ele>320.1</ele>
        <time>2021-05-08T12:30:18Z</time>
      </trkpt>
      <trkpt lat="45.07461" lon="5.66031">
        <ele>320.8</ele>
        <time>2021-05-08T12:30:33Z</time>
      </trkpt>
      <trkpt lat="45.07449" lon="5.66019">
        <ele>321.6</ele>
        <time>2021-05-08T12:30:49Z</time>
      </trkpt>
      <trkpt lat="45.07438" lon="5.66009">
        <ele>322.2</ele>
        <time>2021-05-08T12:31:05Z</time>
      </trkpt>
      <trkpt lat="45.0743" lon="5.65999">
        <ele>322.7</ele>
        <time>2021-05-08T12:31:19Z</time>
      </trkpt>
      <trkpt lat="45.07427" lon="5.65995">
        <ele>323</ele>
        <time>2021-05-08T12:31:33Z</time>
      </trkpt>
      <trkpt lat="45.07425" lon="5.65995">
        <ele>323</ele>
        <time>2021-05-08T12:31:55Z</time>
      </trkpt>
      <trkpt lat="45.07423" lon="5.65985">
        <ele>323.4</ele>
        <time>2021-05-08T12:32:09Z</time>
      </trkpt>
      <trkpt lat="45.07416" lon="5.65975">
        <ele>323.9</ele>
        <time>2021-05-08T12:32:22Z</time>
      </trkpt>
      <trkpt lat="45.07408" lon="5.65959">
        <ele>324.6</ele>
        <time>2021-05-08T12:32:39Z</time>
      </trkpt>
      <trkpt lat="45.074" lon="5.65948">
        <ele>325</ele>
        <time>2021-05-08T12:32:53Z</time>
      </trkpt>
      <trkpt lat="45.07398" lon="5.65941">
        <ele>325.3</ele>
        <time>2021-05-08T12:33:07Z</time>
      </trkpt>
      <trkpt lat="45.07395" lon="5.65928">
        <ele>325.7</ele>
        <time>2021-05-08T12:33:19Z</time>
      </trkpt>
      <trkpt lat="45.07389" lon="5.65911">
        <ele>326.1</ele>
        <time>2021-05-08T12:33:35Z</time>
      </trkpt>
      <trkpt lat="45.07385" lon="5.65895">
        <ele>326.4</ele>
        <time>2021-05-08T12:33:51Z</time>
      </trkpt>
      <trkpt lat="45.07382" lon="5.65877">
        <ele>326.8</ele>
        <time>2021-05-08T12:34:06Z</time>
      </trkpt>
      <trkpt lat="45.07379" lon="5.65859">
        <ele>327.1</ele>
        <time>2021-05-08T12:34:20Z</time>
      </trkpt>
      <trkpt lat="45.07375" lon="5.65844">
        <ele>327.3</ele>
        <time>2021-05-08T12:34:34Z</time>
      </trkpt>
      <trkpt lat="45.07372" lon="5.65828">
        <ele>327.6</ele>
        <time>2021-05-08T12:34:48Z</time>
      </trkpt>
      <trkpt lat="45.07365" lon="5.6581">
        <ele>327.9</ele>
        <time>2021-05-08T12:35:04Z</time>
      </trkpt>
      <trkpt lat="45.07358" lon="5.65794">
        <ele>328.3</ele>
        <time>2021-05-08T12:35:20Z</time>
      </trkpt>
      <trkpt lat="45.07352" lon="5.65782">
        <ele>328.7</ele>
        <time>2021-05-08T12:35:35Z</time>
      </trkpt>
      <trkpt lat="45.07344" lon="5.6577">
        <ele>329.1</ele>
        <time>2021-05-08T12:35:49Z</time>
      </trkpt>
      <trkpt lat="45.07342" lon="5.65766">
        <ele>329.3</ele>
        <time>2021-05-08T12:35:53Z</time>
      </trkpt>
      <trkpt lat="45.07332" lon="5.65756">
        <ele>329.8</ele>
        <time>2021-05-08T12:36:09Z</time>
      </trkpt>
      <trkpt lat="45.07318" lon="5.65745">
        <ele>330.6</ele>
        <time>2021-05-08T12:36:27Z</time>
      </trkpt>
      <trkpt lat="45.07307" lon="5.65736">
        <ele>331</ele>
        <time>2021-05-08T12:36:42Z</time>
      </trkpt>
      <trkpt lat="45.07295" lon="5.65727">
        <ele>331.5</ele>
        <time>2021-05-08T12:36:57Z</time>
      </trkpt>
      <trkpt lat="45.07293" lon="5.65724">
        <ele>331.6</ele>
        <time>2021-05-08T12:37:01Z</time>
      </trkpt>
      <trkpt lat="45.0728" lon="5.65715">
        <ele>332.2</ele>
        <time>2021-05-08T12:37:16Z</time>
      </trkpt>
      <trkpt lat="45.0727" lon="5.65702">
        <ele>332.7</ele>
        <time>2021-05-08T12:37:32Z</time>
      </trkpt>
      <trkpt lat="45.07263" lon="5.65697">
        <ele>333</ele>
        <time>2021-05-08T12:37:45Z</time>
      </trkpt>
      <trkpt lat="45.07257" lon="5.65683">
        <ele>333.5</ele>
        <time>2021-05-08T12:38:00Z</time>
      </trkpt>
      <trkpt lat="45.07248" lon="5.65666">
        <ele>334.1</ele>
        <time>2021-05-08T12:38:18Z</time>
      </trkpt>
      <trkpt lat="45.0724" lon="5.65654">
        <ele>334.9</ele>
        <time>2021-05-08T12:38:32Z</time>
      </trkpt>
      <trkpt lat="45.07235" lon="5.65642">
        <ele>335.6</ele>
        <time>2021-05-08T12:38:44Z</time>
      </trkpt>
      <trkpt lat="45.07227" lon="5.65625">
        <ele>336.4</ele>
        <time>2021-05-08T12:39:00Z</time>
      </trkpt>
      <trkpt lat="45.07221" lon="5.65615">
        <ele>336.9</ele>
        <time>2021-05-08T12:39:14Z</time>
      </trkpt>
      <trkpt lat="45.07217" lon="5.65599">
        <ele>337.5</ele>
        <time>2021-05-08T12:39:29Z</time>
      </trkpt>
      <trkpt lat="45.07212" lon="5.65584">
        <ele>338</ele>
        <time>2021-05-08T12:39:44Z</time>
      </trkpt>
      <trkpt lat="45.07206" lon="5.65572">
        <ele>338.2</ele>
        <time>2021-05-08T12:39:58Z</time>
      </trkpt>
      <trkpt lat="45.07201" lon="5.65563">
        <ele>338.4</ele>
        <time>2021-05-08T12:40:13Z</time>
      </trkpt>
      <trkpt lat="45.07197" lon="5.65558">
        <ele>338.5</ele>
        <time>2021-05-08T12:40:35Z</time>
      </trkpt>
      <trkpt lat="45.07194" lon="5.65553">
        <ele>338.6</ele>
        <time>2021-05-08T12:40:47Z</time>
      </trkpt>
      <trkpt lat="45.07191" lon="5.65549">
        <ele>338.7</ele>
        <time>2021-05-08T12:41:01Z</time>
      </trkpt>
      <trkpt lat="45.07188" lon="5.65549">
        <ele>338.7</ele>
        <time>2021-05-08T12:41:29Z</time>
      </trkpt>
      <trkpt lat="45.07183" lon="5.65551">
        <ele>338.7</ele>
        <time>2021-05-08T12:41:39Z</time>
      </trkpt>
      <trkpt lat="45.07177" lon="5.6555">
        <ele>338.7</ele>
        <time>2021-05-08T12:41:45Z</time>
      </trkpt>
      <trkpt lat="45.07163" lon="5.65547">
        <ele>338.8</ele>
        <time>2021-05-08T12:42:02Z</time>
      </trkpt>
      <trkpt lat="45.07141" lon="5.65537">
        <ele>339</ele>
        <time>2021-05-08T12:42:23Z</time>
      </trkpt>
      <trkpt lat="45.0713" lon="5.65532">
        <ele>339.1</ele>
        <time>2021-05-08T12:42:37Z</time>
      </trkpt>
      <trkpt lat="45.0712" lon="5.6553">
        <ele>339.1</ele>
        <time>2021-05-08T12:42:51Z</time>
      </trkpt>
      <trkpt lat="45.07107" lon="5.65525">
        <ele>339.2</ele>
        <time>2021-05-08T12:43:07Z</time>
      </trkpt>
      <trkpt lat="45.07093" lon="5.65517">
        <ele>339.4</ele>
        <time>2021-05-08T12:43:24Z</time>
      </trkpt>
      <trkpt lat="45.07077" lon="5.6551">
        <ele>339.9</ele>
        <time>2021-05-08T12:43:42Z</time>
      </trkpt>
      <trkpt lat="45.07063" lon="5.65503">
        <ele>340.6</ele>
        <time>2021-05-08T12:43:59Z</time>
      </trkpt>
      <trkpt lat="45.07049" lon="5.65494">
        <ele>341.4</ele>
        <time>2021-05-08T12:44:16Z</time>
      </trkpt>
      <trkpt lat="45.07039" lon="5.65486">
        <ele>342</ele>
        <time>2021-05-08T12:44:32Z</time>
      </trkpt>
      <trkpt lat="45.07029" lon="5.65476">
        <ele>342.5</ele>
        <time>2021-05-08T12:44:49Z</time>
      </trkpt>
      <trkpt lat="45.07019" lon="5.65462">
        <ele>343.1</ele>
        <time>2021-05-08T12:45:06Z</time>
      </trkpt>
      <trkpt lat="45.07012" lon="5.65446">
        <ele>343.5</ele>
        <time>2021-05-08T12:45:22Z</time>
      </trkpt>
      <trkpt lat="45.07004" lon="5.65427">
        <ele>343.9</ele>
        <time>2021-05-08T12:45:41Z</time>
      </trkpt>
      <trkpt lat="45.06999" lon="5.65408">
        <ele>344.3</ele>
        <time>2021-05-08T12:45:58Z</time>
      </trkpt>
      <trkpt lat="45.06995" lon="5.65387">
        <ele>345.2</ele>
        <time>2021-05-08T12:46:17Z</time>
      </trkpt>
      <trkpt lat="45.06993" lon="5.65368">
        <ele>345.9</ele>
        <time>2021-05-08T12:46:34Z</time>
      </trkpt>
      <trkpt lat="45.06993" lon="5.65351">
        <ele>346.5</ele>
        <time>2021-05-08T12:46:50Z</time>
      </trkpt>
      <trkpt lat="45.06993" lon="5.6533">
        <ele>347.3</ele>
        <time>2021-05-08T12:47:07Z</time>
      </trkpt>
      <trkpt lat="45.06992" lon="5.6531">
        <ele>348</ele>
        <time>2021-05-08T12:47:24Z</time>
      </trkpt>
      <trkpt lat="45.06989" lon="5.65292">
        <ele>348.6</ele>
        <time>2021-05-08T12:47:40Z</time>
      </trkpt>
      <trkpt lat="45.06985" lon="5.65274">
        <ele>349.1</ele>
        <time>2021-05-08T12:47:55Z</time>
      </trkpt>
      <trkpt lat="45.0698" lon="5.65256">
        <ele>349.6</ele>
        <time>2021-05-08T12:48:11Z</time>
      </trkpt>
      <trkpt lat="45.06975" lon="5.6524">
        <ele>349.9</ele>
        <time>2021-05-08T12:48:28Z</time>
      </trkpt>
      <trkpt lat="45.06973" lon="5.65231">
        <ele>350.1</ele>
        <time>2021-05-08T12:48:43Z</time>
      </trkpt>
      <trkpt lat="45.06967" lon="5.65209">
        <ele>350.5</ele>
        <time>2021-05-08T12:49:03Z</time>
      </trkpt>
      <trkpt lat="45.06962" lon="5.65188">
        <ele>351</ele>
        <time>2021-05-08T12:49:22Z</time>
      </trkpt>
      <trkpt lat="45.06956" lon="5.65167">
        <ele>351.5</ele>
        <time>2021-05-08T12:49:41Z</time>
      </trkpt>
      <trkpt lat="45.0695" lon="5.6515">
        <ele>352.1</ele>
        <time>2021-05-08T12:49:56Z</time>
      </trkpt>
      <trkpt lat="45.06945" lon="5.65135">
        <ele>352.5</ele>
        <time>2021-05-08T12:50:10Z</time>
      </trkpt>
      <trkpt lat="45.06938" lon="5.65118">
        <ele>353.1</ele>
        <time>2021-05-08T12:50:27Z</time>
      </trkpt>
      <trkpt lat="45.06934" lon="5.65109">
        <ele>353.3</ele>
        <time>2021-05-08T12:50:45Z</time>
      </trkpt>
      <trkpt lat="45.06926" lon="5.6509">
        <ele>353.8</ele>
        <time>2021-05-08T12:51:02Z</time>
      </trkpt>
      <trkpt lat="45.06918" lon="5.65073">
        <ele>354.4</ele>
        <time>2021-05-08T12:51:21Z</time>
      </trkpt>
      <trkpt lat="45.06911" lon="5.6506">
        <ele>355</ele>
        <time>2021-05-08T12:51:36Z</time>
      </trkpt>
      <trkpt lat="45.06905" lon="5.65048">
        <ele>355.6</ele>
        <time>2021-05-08T12:51:51Z</time>
      </trkpt>
      <trkpt lat="45.06897" lon="5.65038">
        <ele>356.1</ele>
        <time>2021-05-08T12:52:06Z</time>
      </trkpt>
      <trkpt lat="45.06889" lon="5.65024">
        <ele>356.7</ele>
        <time>2021-05-08T12:52:22Z</time>
      </trkpt>
      <trkpt lat="45.06879" lon="5.65014">
        <ele>357.1</ele>
        <time>2021-05-08T12:52:40Z</time>
      </trkpt>
      <trkpt lat="45.06872" lon="5.65007">
        <ele>357.4</ele>
        <time>2021-05-08T12:52:57Z</time>
      </trkpt>
      <trkpt lat="45.06869" lon="5.65003">
        <ele>357.5</ele>
        <time>2021-05-08T12:53:11Z</time>
      </trkpt>
      <trkpt lat="45.06863" lon="5.64988">
        <ele>357.7</ele>
        <time>2021-05-08T12:53:28Z</time>
      </trkpt>
      <trkpt lat="45.06856" lon="5.6497">
        <ele>357.9</ele>
        <time>2021-05-08T12:53:46Z</time>
      </trkpt>
      <trkpt lat="45.06849" lon="5.64956">
        <ele>358</ele>
        <time>2021-05-08T12:54:03Z</time>
      </trkpt>
      <trkpt lat="45.06845" lon="5.64944">
        <ele>358</ele>
        <time>2021-05-08T12:54:17Z</time>
      </trkpt>
      <trkpt lat="45.0684" lon="5.6493">
        <ele>358.1</ele>
        <time>2021-05-08T12:54:32Z</time>
      </trkpt>
      <trkpt lat="45.06832" lon="5.64914">
        <ele>358.3</ele>
        <time>2021-05-08T12:54:50Z</time>
      </trkpt>
      <trkpt lat="45.06825" lon="5.64895">
        <ele>360.2</ele>
        <time>2021-05-08T12:55:08Z</time>
      </trkpt>
      <trkpt lat="45.06818" lon="5.6488">
        <ele>361.7</ele>
        <time>2021-05-08T12:55:25Z</time>
      </trkpt>
      <trkpt lat="45.06811" lon="5.64864">
        <ele>363.2</ele>
        <time>2021-05-08T12:55:41Z</time>
      </trkpt>
      <trkpt lat="45.06806" lon="5.64849">
        <ele>364.6</ele>
        <time>2021-05-08T12:55:57Z</time>
      </trkpt>
      <trkpt lat="45.06799" lon="5.64832">
        <ele>366.1</ele>
        <time>2021-05-08T12:56:13Z</time>
      </trkpt>
      <trkpt lat="45.06795" lon="5.64817">
        <ele>367</ele>
        <time>2021-05-08T12:56:28Z</time>
      </trkpt>
      <trkpt lat="45.06792" lon="5.64803">
        <ele>367.8</ele>
        <time>2021-05-08T12:56:42Z</time>
      </trkpt>
      <trkpt lat="45.06789" lon="5.64783">
        <ele>368.8</ele>
        <time>2021-05-08T12:57:01Z</time>
      </trkpt>
      <trkpt lat="45.0679" lon="5.64778">
        <ele>368.9</ele>
        <time>2021-05-08T12:57:17Z</time>
      </trkpt>
      <trkpt lat="45.06792" lon="5.64777">
        <ele>368.8</ele>
        <time>2021-05-08T12:57:32Z</time>
      </trkpt>
      <trkpt lat="45.06795" lon="5.64777">
        <ele>368.7</ele>
        <time>2021-05-08T12:57:56Z</time>
      </trkpt>
      <trkpt lat="45.0679" lon="5.64777">
        <ele>369</ele>
        <time>2021-05-08T12:58:18Z</time>
      </trkpt>
      <trkpt lat="45.0679" lon="5.64775">
        <ele>369.1</ele>
        <time>2021-05-08T12:58:38Z</time>
      </trkpt>
      <trkpt lat="45.06788" lon="5.64775">
        <ele>369.1</ele>
        <time>2021-05-08T12:58:58Z</time>
      </trkpt>
      <trkpt lat="45.06789" lon="5.64774">
        <ele>369.1</ele>
        <time>2021-05-08T12:59:21Z</time>
      </trkpt>
      <trkpt lat="45.06791" lon="5.6477">
        <ele>369.2</ele>
        <time>2021-05-08T12:59:44Z</time>
      </trkpt>
      <trkpt lat="45.06787" lon="5.64759">
        <ele>369.8</ele>
        <time>2021-05-08T13:00:02Z</time>
      </trkpt>
      <trkpt lat="45.06784" lon="5.64738">
        <ele>370.5</ele>
        <time>2021-05-08T13:00:22Z</time>
      </trkpt>
      <trkpt lat="45.06791" lon="5.64719">
        <ele>370.4</ele>
        <time>2021-05-08T13:00:49Z</time>
      </trkpt>
      <trkpt lat="45.06799" lon="5.64713">
        <ele>370.2</ele>
        <time>2021-05-08T13:01:09Z</time>
      </trkpt>
      <trkpt lat="45.06817" lon="5.64698">
        <ele>369.8</ele>
        <time>2021-05-08T13:01:32Z</time>
      </trkpt>
      <trkpt lat="45.06833" lon="5.64682">
        <ele>369.6</ele>
        <time>2021-05-08T13:01:56Z</time>
      </trkpt>
      <trkpt lat="45.06857" lon="5.64668">
        <ele>369.7</ele>
        <time>2021-05-08T13:02:20Z</time>
      </trkpt>
      <trkpt lat="45.06865" lon="5.64661">
        <ele>369.9</ele>
        <time>2021-05-08T13:02:30Z</time>
      </trkpt>
      <trkpt lat="45.06876" lon="5.64646">
        <ele>370.5</ele>
        <time>2021-05-08T13:02:54Z</time>
      </trkpt>
      <trkpt lat="45.06886" lon="5.64635">
        <ele>370.8</ele>
        <time>2021-05-08T13:03:18Z</time>
      </trkpt>
      <trkpt lat="45.06902" lon="5.64621">
        <ele>371</ele>
        <time>2021-05-08T13:03:42Z</time>
      </trkpt>
      <trkpt lat="45.06918" lon="5.64606">
        <ele>371.1</ele>
        <time>2021-05-08T13:04:08Z</time>
      </trkpt>
      <trkpt lat="45.06931" lon="5.64589">
        <ele>371.3</ele>
        <time>2021-05-08T13:04:29Z</time>
      </trkpt>
      <trkpt lat="45.06943" lon="5.64578">
        <ele>371.2</ele>
        <time>2021-05-08T13:04:53Z</time>
      </trkpt>
      <trkpt lat="45.06958" lon="5.64562">
        <ele>371</ele>
        <time>2021-05-08T13:05:17Z</time>
      </trkpt>
      <trkpt lat="45.06974" lon="5.64546">
        <ele>370.8</ele>
        <time>2021-05-08T13:05:39Z</time>
      </trkpt>
      <trkpt lat="45.06998" lon="5.64529">
        <ele>370.4</ele>
        <time>2021-05-08T13:06:01Z</time>
      </trkpt>
      <trkpt lat="45.07018" lon="5.64511">
        <ele>370.7</ele>
        <time>2021-05-08T13:06:25Z</time>
      </trkpt>
      <trkpt lat="45.07025" lon="5.64499">
        <ele>371</ele>
        <time>2021-05-08T13:06:49Z</time>
      </trkpt>
      <trkpt lat="45.07042" lon="5.64488">
        <ele>371.5</ele>
        <time>2021-05-08T13:07:11Z</time>
      </trkpt>
      <trkpt lat="45.0706" lon="5.64471">
        <ele>372.3</ele>
        <time>2021-05-08T13:07:37Z</time>
      </trkpt>
      <trkpt lat="45.07073" lon="5.64452">
        <ele>373.2</ele>
        <time>2021-05-08T13:08:01Z</time>
      </trkpt>
      <trkpt lat="45.07084" lon="5.64429">
        <ele>374.4</ele>
        <time>2021-05-08T13:08:23Z</time>
      </trkpt>
      <trkpt lat="45.07094" lon="5.644">
        <ele>375.9</ele>
        <time>2021-05-08T13:08:50Z</time>
      </trkpt>
      <trkpt lat="45.07098" lon="5.64378">
        <ele>377.1</ele>
        <time>2021-05-08T13:09:14Z</time>
      </trkpt>
      <trkpt lat="45.07108" lon="5.64356">
        <ele>378.6</ele>
        <time>2021-05-08T13:09:37Z</time>
      </trkpt>
      <trkpt lat="45.07124" lon="5.64335">
        <ele>380.3</ele>
        <time>2021-05-08T13:09:59Z</time>
      </trkpt>
      <trkpt lat="45.07133" lon="5.64318">
        <ele>381.5</ele>
        <time>2021-05-08T13:10:21Z</time>
      </trkpt>
      <trkpt lat="45.0714" lon="5.64304">
        <ele>382.4</ele>
        <time>2021-05-08T13:10:44Z</time>
      </trkpt>
      <trkpt lat="45.07144" lon="5.643">
        <ele>382.8</ele>
        <time>2021-05-08T13:11:08Z</time>
      </trkpt>
      <trkpt lat="45.07161" lon="5.64294">
        <ele>383.7</ele>
        <time>2021-05-08T13:11:29Z</time>
      </trkpt>
      <trkpt lat="45.07171" lon="5.64294">
        <ele>383.9</ele>
        <time>2021-05-08T13:11:45Z</time>
      </trkpt>
      <trkpt lat="45.07184" lon="5.64303">
        <ele>383.6</ele>
        <time>2021-05-08T13:12:07Z</time>
      </trkpt>
      <trkpt lat="45.07189" lon="5.6431">
        <ele>383.3</ele>
        <time>2021-05-08T13:12:30Z</time>
      </trkpt>
      <trkpt lat="45.07197" lon="5.64321">
        <ele>382.7</ele>
        <time>2021-05-08T13:12:52Z</time>
      </trkpt>
      <trkpt lat="45.07191" lon="5.64326">
        <ele>382.4</ele>
        <time>2021-05-08T13:13:14Z</time>
      </trkpt>
      <trkpt lat="45.07194" lon="5.64325">
        <ele>382.4</ele>
        <time>2021-05-08T13:13:43Z</time>
      </trkpt>
      <trkpt lat="45.07194" lon="5.64325">
        <ele>382.5</ele>
        <time>2021-05-08T13:14:10Z</time>
      </trkpt>
      <trkpt lat="45.07193" lon="5.64325">
        <ele>382.4</ele>
        <time>2021-05-08T13:14:35Z</time>
      </trkpt>
      <trkpt lat="45.07193" lon="5.64325">
        <ele>382.5</ele>
        <time>2021-05-08T13:15:05Z</time>
      </trkpt>
      <trkpt lat="45.07189" lon="5.64324">
        <ele>382.5</ele>
        <time>2021-05-08T13:15:35Z</time>
      </trkpt>
      <trkpt lat="45.0719" lon="5.64329">
        <ele>382.2</ele>
        <time>2021-05-08T13:16:12Z</time>
      </trkpt>
      <trkpt lat="45.0719" lon="5.64329">
        <ele>382.2</ele>
        <time>2021-05-08T13:16:40Z</time>
      </trkpt>
      <trkpt lat="45.07196" lon="5.64327">
        <ele>382.4</ele>
        <time>2021-05-08T13:17:10Z</time>
      </trkpt>
      <trkpt lat="45.07209" lon="5.6433">
        <ele>382.2</ele>
        <time>2021-05-08T13:17:36Z</time>
      </trkpt>
      <trkpt lat="45.07202" lon="5.64326">
        <ele>382.4</ele>
        <time>2021-05-08T13:18:05Z</time>
      </trkpt>
      <trkpt lat="45.07194" lon="5.64332">
        <ele>382.1</ele>
        <time>2021-05-08T13:18:32Z</time>
      </trkpt>
      <trkpt lat="45.07188" lon="5.64339">
        <ele>381.5</ele>
        <time>2021-05-08T13:19:05Z</time>
      </trkpt>
      <trkpt lat="45.0719" lon="5.6433">
        <ele>382.2</ele>
        <time>2021-05-08T13:19:33Z</time>
      </trkpt>
      <trkpt lat="45.07189" lon="5.64341">
        <ele>381.4</ele>
        <time>2021-05-08T13:20:03Z</time>
      </trkpt>
      <trkpt lat="45.07188" lon="5.64339">
        <ele>381.6</ele>
        <time>2021-05-08T13:20:35Z</time>
      </trkpt>
      <trkpt lat="45.07192" lon="5.64335">
        <ele>381.9</ele>
        <time>2021-05-08T13:21:15Z</time>
      </trkpt>
      <trkpt lat="45.07194" lon="5.64332">
        <ele>382.1</ele>
        <time>2021-05-08T13:21:48Z</time>
      </trkpt>
      <trkpt lat="45.07188" lon="5.64337">
        <ele>381.7</ele>
        <time>2021-05-08T13:22:15Z</time>
      </trkpt>
      <trkpt lat="45.0719" lon="5.64341">
        <ele>381.4</ele>
        <time>2021-05-08T13:22:41Z</time>
      </trkpt>
      <trkpt lat="45.07191" lon="5.64337">
        <ele>381.8</ele>
        <time>2021-05-08T13:23:09Z</time>
      </trkpt>
      <trkpt lat="45.0719" lon="5.64339">
        <ele>381.6</ele>
        <time>2021-05-08T13:23:47Z</time>
      </trkpt>
      <trkpt lat="45.07192" lon="5.64331">
        <ele>382.1</ele>
        <time>2021-05-08T13:24:23Z</time>
      </trkpt>
      <trkpt lat="45.0719" lon="5.64331">
        <ele>382.1</ele>
        <time>2021-05-08T13:24:56Z</time>
      </trkpt>
      <trkpt lat="45.07192" lon="5.64335">
        <ele>381.9</ele>
        <time>2021-05-08T13:25:26Z</time>
      </trkpt>
      <trkpt lat="45.07191" lon="5.64332">
        <ele>382.1</ele>
        <time>2021-05-08T13:25:55Z</time>
      </trkpt>
      <trkpt lat="45.0719" lon="5.64332">
        <ele>382.1</ele>
        <time>2021-05-08T13:26:22Z</time>
      </trkpt>
      <trkpt lat="45.07187" lon="5.64337">
        <ele>381.7</ele>
        <time>2021-05-08T13:26:48Z</time>
      </trkpt>
      <trkpt lat="45.07187" lon="5.64333">
        <ele>382</ele>
        <time>2021-05-08T13:27:20Z</time>
      </trkpt>
      <trkpt lat="45.07189" lon="5.64331">
        <ele>382.1</ele>
        <time>2021-05-08T13:27:57Z</time>
      </trkpt>
      <trkpt lat="45.07189" lon="5.64333">
        <ele>382</ele>
        <time>2021-05-08T13:28:32Z</time>
      </trkpt>
      <trkpt lat="45.07186" lon="5.64334">
        <ele>381.9</ele>
        <time>2021-05-08T13:29:06Z</time>
      </trkpt>
      <trkpt lat="45.07186" lon="5.64334">
        <ele>381.9</ele>
        <time>2021-05-08T13:29:37Z</time>
      </trkpt>
      <trkpt lat="45.07188" lon="5.64337">
        <ele>381.7</ele>
        <time>2021-05-08T13:30:09Z</time>
      </trkpt>
      <trkpt lat="45.07188" lon="5.64333">
        <ele>382</ele>
        <time>2021-05-08T13:30:42Z</time>
      </trkpt>
      <trkpt lat="45.07189" lon="5.64335">
        <ele>381.8</ele>
        <time>2021-05-08T13:31:13Z</time>
      </trkpt>
      <trkpt lat="45.07189" lon="5.64333">
        <ele>382</ele>
        <time>2021-05-08T13:31:49Z</time>
      </trkpt>
      <trkpt lat="45.0719" lon="5.64335">
        <ele>381.9</ele>
        <time>2021-05-08T13:32:22Z</time>
      </trkpt>
      <trkpt lat="45.07192" lon="5.64336">
        <ele>381.8</ele>
        <time>2021-05-08T13:32:59Z</time>
      </trkpt>
      <trkpt lat="45.07194" lon="5.64339">
        <ele>381.6</ele>
        <time>2021-05-08T13:33:34Z</time>
      </trkpt>
      <trkpt lat="45.07194" lon="5.64341">
        <ele>381.4</ele>
        <time>2021-05-08T13:34:04Z</time>
      </trkpt>
      <trkpt lat="45.07195" lon="5.64339">
        <ele>381.6</ele>
        <time>2021-05-08T13:34:36Z</time>
      </trkpt>
      <trkpt lat="45.0719" lon="5.64336">
        <ele>381.8</ele>
        <time>2021-05-08T13:35:11Z</time>
      </trkpt>
      <trkpt lat="45.0719" lon="5.64345">
        <ele>381.1</ele>
        <time>2021-05-08T13:35:40Z</time>
      </trkpt>
      <trkpt lat="45.07189" lon="5.64353">
        <ele>380.6</ele>
        <time>2021-05-08T13:36:18Z</time>
      </trkpt>
      <trkpt lat="45.0719" lon="5.64355">
        <ele>380.4</ele>
        <time>2021-05-08T13:36:53Z</time>
      </trkpt>
      <trkpt lat="45.0719" lon="5.6435">
        <ele>380.8</ele>
        <time>2021-05-08T13:37:27Z</time>
      </trkpt>
      <trkpt lat="45.07191" lon="5.64342">
        <ele>381.3</ele>
        <time>2021-05-08T13:38:02Z</time>
      </trkpt>
      <trkpt lat="45.07194" lon="5.64344">
        <ele>381.2</ele>
        <time>2021-05-08T13:38:34Z</time>
      </trkpt>
      <trkpt lat="45.0719" lon="5.64339">
        <ele>381.6</ele>
        <time>2021-05-08T13:39:03Z</time>
      </trkpt>
      <trkpt lat="45.07188" lon="5.6433">
        <ele>382.2</ele>
        <time>2021-05-08T13:39:32Z</time>
      </trkpt>
      <trkpt lat="45.07189" lon="5.64335">
        <ele>381.9</ele>
        <time>2021-05-08T13:40:02Z</time>
      </trkpt>
      <trkpt lat="45.07187" lon="5.6433">
        <ele>382.2</ele>
        <time>2021-05-08T13:40:27Z</time>
      </trkpt>
      <trkpt lat="45.0719" lon="5.6433">
        <ele>382.2</ele>
        <time>2021-05-08T13:40:59Z</time>
      </trkpt>
      <trkpt lat="45.07192" lon="5.64332">
        <ele>382.1</ele>
        <time>2021-05-08T13:41:38Z</time>
      </trkpt>
      <trkpt lat="45.0719" lon="5.64331">
        <ele>382.1</ele>
        <time>2021-05-08T13:42:16Z</time>
      </trkpt>
      <trkpt lat="45.07191" lon="5.64331">
        <ele>382.2</ele>
        <time>2021-05-08T13:42:55Z</time>
      </trkpt>
      <trkpt lat="45.0719" lon="5.6433">
        <ele>382.2</ele>
        <time>2021-05-08T13:43:34Z</time>
      </trkpt>
      <trkpt lat="45.07189" lon="5.64323">
        <ele>382.6</ele>
        <time>2021-05-08T13:44:12Z</time>
      </trkpt>
      <trkpt lat="45.0719" lon="5.64321">
        <ele>382.7</ele>
        <time>2021-05-08T13:44:53Z</time>
      </trkpt>
      <trkpt lat="45.07191" lon="5.64321">
        <ele>382.7</ele>
        <time>2021-05-08T13:45:32Z</time>
      </trkpt>
      <trkpt lat="45.07193" lon="5.64326">
        <ele>382.4</ele>
        <time>2021-05-08T13:46:07Z</time>
      </trkpt>
      <trkpt lat="45.07194" lon="5.64328">
        <ele>382.3</ele>
        <time>2021-05-08T13:46:51Z</time>
      </trkpt>
      <trkpt lat="45.07193" lon="5.64319">
        <ele>382.8</ele>
        <time>2021-05-08T13:47:28Z</time>
      </trkpt>
      <trkpt lat="45.07195" lon="5.64321">
        <ele>382.7</ele>
        <time>2021-05-08T13:48:06Z</time>
      </trkpt>
      <trkpt lat="45.07194" lon="5.64322">
        <ele>382.6</ele>
        <time>2021-05-08T13:48:43Z</time>
      </trkpt>
      <trkpt lat="45.07194" lon="5.64322">
        <ele>382.6</ele>
        <time>2021-05-08T13:49:17Z</time>
      </trkpt>
      <trkpt lat="45.07189" lon="5.64331">
        <ele>382.1</ele>
        <time>2021-05-08T13:49:53Z</time>
      </trkpt>
      <trkpt lat="45.07186" lon="5.64327">
        <ele>382.3</ele>
        <time>2021-05-08T13:50:24Z</time>
      </trkpt>
      <trkpt lat="45.07193" lon="5.64331">
        <ele>382.1</ele>
        <time>2021-05-08T13:50:57Z</time>
      </trkpt>
      <trkpt lat="45.07196" lon="5.6433">
        <ele>382.2</ele>
        <time>2021-05-08T13:51:35Z</time>
      </trkpt>
      <trkpt lat="45.07192" lon="5.64327">
        <ele>382.4</ele>
        <time>2021-05-08T13:52:13Z</time>
      </trkpt>
      <trkpt lat="45.07195" lon="5.64326">
        <ele>382.4</ele>
        <time>2021-05-08T13:52:52Z</time>
      </trkpt>
      <trkpt lat="45.07196" lon="5.64331">
        <ele>382.1</ele>
        <time>2021-05-08T13:53:33Z</time>
      </trkpt>
      <trkpt lat="45.07194" lon="5.64333">
        <ele>382</ele>
        <time>2021-05-08T13:54:07Z</time>
      </trkpt>
      <trkpt lat="45.07192" lon="5.6433">
        <ele>382.2</ele>
        <time>2021-05-08T13:54:39Z</time>
      </trkpt>
      <trkpt lat="45.07195" lon="5.6433">
        <ele>382.2</ele>
        <time>2021-05-08T13:55:18Z</time>
      </trkpt>
      <trkpt lat="45.07194" lon="5.64331">
        <ele>382.1</ele>
        <time>2021-05-08T13:56:00Z</time>
      </trkpt>
      <trkpt lat="45.07189" lon="5.64325">
        <ele>382.5</ele>
        <time>2021-05-08T13:56:37Z</time>
      </trkpt>
      <trkpt lat="45.0719" lon="5.64333">
        <ele>382</ele>
        <time>2021-05-08T13:57:13Z</time>
      </trkpt>
      <trkpt lat="45.07192" lon="5.64327">
        <ele>382.3</ele>
        <time>2021-05-08T13:57:51Z</time>
      </trkpt>
      <trkpt lat="45.07194" lon="5.64337">
        <ele>381.7</ele>
        <time>2021-05-08T13:58:36Z</time>
      </trkpt>
      <trkpt lat="45.07191" lon="5.64331">
        <ele>382.1</ele>
        <time>2021-05-08T13:59:16Z</time>
      </trkpt>
      <trkpt lat="45.0719" lon="5.64335">
        <ele>381.9</ele>
        <time>2021-05-08T13:59:51Z</time>
      </trkpt>
      <trkpt lat="45.07193" lon="5.64332">
        <ele>382.1</ele>
        <time>2021-05-08T14:00:36Z</time>
      </trkpt>
      <trkpt lat="45.07185" lon="5.64336">
        <ele>381.8</ele>
        <time>2021-05-08T14:01:22Z</time>
      </trkpt>
      <trkpt lat="45.07186" lon="5.64339">
        <ele>381.5</ele>
        <time>2021-05-08T14:01:52Z</time>
      </trkpt>
      <trkpt lat="45.07186" lon="5.64341">
        <ele>381.4</ele>
        <time>2021-05-08T14:02:21Z</time>
      </trkpt>
      <trkpt lat="45.07189" lon="5.64342">
        <ele>381.3</ele>
        <time>2021-05-08T14:02:50Z</time>
      </trkpt>
      <trkpt lat="45.07192" lon="5.64341">
        <ele>381.4</ele>
        <time>2021-05-08T14:03:35Z</time>
      </trkpt>
      <trkpt lat="45.07193" lon="5.64342">
        <ele>381.4</ele>
        <time>2021-05-08T14:04:17Z</time>
      </trkpt>
      <trkpt lat="45.07194" lon="5.64336">
        <ele>381.8</ele>
        <time>2021-05-08T14:04:47Z</time>
      </trkpt>
      <trkpt lat="45.07189" lon="5.64343">
        <ele>381.3</ele>
        <time>2021-05-08T14:05:22Z</time>
      </trkpt>
      <trkpt lat="45.07188" lon="5.64338">
        <ele>381.6</ele>
        <time>2021-05-08T14:06:12Z</time>
      </trkpt>
      <trkpt lat="45.07192" lon="5.64335">
        <ele>381.9</ele>
        <time>2021-05-08T14:06:57Z</time>
      </trkpt>
      <trkpt lat="45.07193" lon="5.64332">
        <ele>382</ele>
        <time>2021-05-08T14:07:31Z</time>
      </trkpt>
      <trkpt lat="45.07195" lon="5.6433">
        <ele>382.2</ele>
        <time>2021-05-08T14:08:08Z</time>
      </trkpt>
      <trkpt lat="45.07189" lon="5.64318">
        <ele>382.8</ele>
        <time>2021-05-08T14:08:41Z</time>
      </trkpt>
      <trkpt lat="45.07192" lon="5.64329">
        <ele>382.2</ele>
        <time>2021-05-08T14:09:12Z</time>
      </trkpt>
      <trkpt lat="45.07192" lon="5.64333">
        <ele>382</ele>
        <time>2021-05-08T14:09:36Z</time>
      </trkpt>
      <trkpt lat="45.07192" lon="5.64329">
        <ele>382.2</ele>
        <time>2021-05-08T14:10:10Z</time>
      </trkpt>
      <trkpt lat="45.07195" lon="5.64332">
        <ele>382.1</ele>
        <time>2021-05-08T14:10:34Z</time>
      </trkpt>
      <trkpt lat="45.07203" lon="5.64345">
        <ele>381.2</ele>
        <time>2021-05-08T14:10:52Z</time>
      </trkpt>
      <trkpt lat="45.07195" lon="5.64324">
        <ele>382.5</ele>
        <time>2021-05-08T14:11:13Z</time>
      </trkpt>
      <trkpt lat="45.07212" lon="5.64307">
        <ele>383.6</ele>
        <time>2021-05-08T14:11:35Z</time>
      </trkpt>
      <trkpt lat="45.07221" lon="5.643">
        <ele>384.1</ele>
        <time>2021-05-08T14:11:59Z</time>
      </trkpt>
      <trkpt lat="45.07214" lon="5.64309">
        <ele>383.5</ele>
        <time>2021-05-08T14:12:18Z</time>
      </trkpt>
      <trkpt lat="45.07216" lon="5.64333">
        <ele>382</ele>
        <time>2021-05-08T14:12:33Z</time>
      </trkpt>
      <trkpt lat="45.07232" lon="5.64337">
        <ele>381.8</ele>
        <time>2021-05-08T14:12:48Z</time>
      </trkpt>
      <trkpt lat="45.07246" lon="5.64368">
        <ele>380.3</ele>
        <time>2021-05-08T14:13:13Z</time>
      </trkpt>
      <trkpt lat="45.07258" lon="5.64394">
        <ele>379.5</ele>
        <time>2021-05-08T14:13:38Z</time>
      </trkpt>
      <trkpt lat="45.07267" lon="5.64427">
        <ele>377.9</ele>
        <time>2021-05-08T14:14:00Z</time>
      </trkpt>
      <trkpt lat="45.07276" lon="5.64443">
        <ele>376.7</ele>
        <time>2021-05-08T14:14:21Z</time>
      </trkpt>
      <trkpt lat="45.07282" lon="5.64476">
        <ele>373.8</ele>
        <time>2021-05-08T14:14:42Z</time>
      </trkpt>
      <trkpt lat="45.07291" lon="5.64506">
        <ele>371.7</ele>
        <time>2021-05-08T14:15:08Z</time>
      </trkpt>
      <trkpt lat="45.07299" lon="5.64544">
        <ele>370.8</ele>
        <time>2021-05-08T14:15:34Z</time>
      </trkpt>
      <trkpt lat="45.07307" lon="5.64577">
        <ele>370.4</ele>
        <time>2021-05-08T14:15:57Z</time>
      </trkpt>
      <trkpt lat="45.07316" lon="5.64604">
        <ele>370.1</ele>
        <time>2021-05-08T14:16:18Z</time>
      </trkpt>
      <trkpt lat="45.07326" lon="5.64637">
        <ele>369.2</ele>
        <time>2021-05-08T14:16:45Z</time>
      </trkpt>
      <trkpt lat="45.07336" lon="5.64671">
        <ele>368.3</ele>
        <time>2021-05-08T14:17:09Z</time>
      </trkpt>
      <trkpt lat="45.07345" lon="5.64706">
        <ele>369.3</ele>
        <time>2021-05-08T14:17:35Z</time>
      </trkpt>
      <trkpt lat="45.07344" lon="5.6474">
        <ele>369.1</ele>
        <time>2021-05-08T14:17:57Z</time>
      </trkpt>
      <trkpt lat="45.07345" lon="5.64778">
        <ele>368</ele>
        <time>2021-05-08T14:18:23Z</time>
      </trkpt>
      <trkpt lat="45.07347" lon="5.64812">
        <ele>366.7</ele>
        <time>2021-05-08T14:18:48Z</time>
      </trkpt>
      <trkpt lat="45.0735" lon="5.64828">
        <ele>366.2</ele>
        <time>2021-05-08T14:19:10Z</time>
      </trkpt>
      <trkpt lat="45.07363" lon="5.64863">
        <ele>364.5</ele>
        <time>2021-05-08T14:19:37Z</time>
      </trkpt>
      <trkpt lat="45.07379" lon="5.64888">
        <ele>363.9</ele>
        <time>2021-05-08T14:20:01Z</time>
      </trkpt>
      <trkpt lat="45.07395" lon="5.6492">
        <ele>363</ele>
        <time>2021-05-08T14:20:25Z</time>
      </trkpt>
      <trkpt lat="45.07414" lon="5.6495">
        <ele>362.4</ele>
        <time>2021-05-08T14:20:52Z</time>
      </trkpt>
      <trkpt lat="45.07423" lon="5.64966">
        <ele>362</ele>
        <time>2021-05-08T14:21:13Z</time>
      </trkpt>
      <trkpt lat="45.07425" lon="5.64968">
        <ele>362</ele>
        <time>2021-05-08T14:21:36Z</time>
      </trkpt>
      <trkpt lat="45.07429" lon="5.64975">
        <ele>361.8</ele>
        <time>2021-05-08T14:21:59Z</time>
      </trkpt>
      <trkpt lat="45.0744" lon="5.64991">
        <ele>361.7</ele>
        <time>2021-05-08T14:22:22Z</time>
      </trkpt>
      <trkpt lat="45.07453" lon="5.65027">
        <ele>360.3</ele>
        <time>2021-05-08T14:22:50Z</time>
      </trkpt>
      <trkpt lat="45.07464" lon="5.65054">
        <ele>359.3</ele>
        <time>2021-05-08T14:23:15Z</time>
      </trkpt>
      <trkpt lat="45.07479" lon="5.65077">
        <ele>358.9</ele>
        <time>2021-05-08T14:23:37Z</time>
      </trkpt>
      <trkpt lat="45.0749" lon="5.65108">
        <ele>357</ele>
        <time>2021-05-08T14:24:03Z</time>
      </trkpt>
      <trkpt lat="45.07503" lon="5.65138">
        <ele>354.9</ele>
        <time>2021-05-08T14:24:28Z</time>
      </trkpt>
      <trkpt lat="45.07518" lon="5.65164">
        <ele>352.5</ele>
        <time>2021-05-08T14:24:51Z</time>
      </trkpt>
      <trkpt lat="45.0753" lon="5.65192">
        <ele>350.7</ele>
        <time>2021-05-08T14:25:14Z</time>
      </trkpt>
      <trkpt lat="45.07542" lon="5.65216">
        <ele>349.6</ele>
        <time>2021-05-08T14:25:35Z</time>
      </trkpt>
      <trkpt lat="45.07559" lon="5.65239">
        <ele>349.1</ele>
        <time>2021-05-08T14:25:59Z</time>
      </trkpt>
      <trkpt lat="45.07575" lon="5.65264">
        <ele>348.3</ele>
        <time>2021-05-08T14:26:22Z</time>
      </trkpt>
      <trkpt lat="45.07596" lon="5.6529">
        <ele>347.8</ele>
        <time>2021-05-08T14:26:48Z</time>
      </trkpt>
      <trkpt lat="45.07613" lon="5.65322">
        <ele>346.4</ele>
        <time>2021-05-08T14:27:14Z</time>
      </trkpt>
      <trkpt lat="45.0763" lon="5.65346">
        <ele>345.8</ele>
        <time>2021-05-08T14:27:37Z</time>
      </trkpt>
      <trkpt lat="45.07649" lon="5.6538">
        <ele>344.6</ele>
        <time>2021-05-08T14:28:02Z</time>
      </trkpt>
      <trkpt lat="45.07663" lon="5.65409">
        <ele>343.3</ele>
        <time>2021-05-08T14:28:24Z</time>
      </trkpt>
      <trkpt lat="45.07677" lon="5.65435">
        <ele>342.5</ele>
        <time>2021-05-08T14:28:48Z</time>
      </trkpt>
      <trkpt lat="45.07694" lon="5.65457">
        <ele>342.6</ele>
        <time>2021-05-08T14:29:09Z</time>
      </trkpt>
      <trkpt lat="45.0771" lon="5.65483">
        <ele>342.4</ele>
        <time>2021-05-08T14:29:32Z</time>
      </trkpt>
      <trkpt lat="45.07726" lon="5.65507">
        <ele>342.5</ele>
        <time>2021-05-08T14:29:53Z</time>
      </trkpt>
      <trkpt lat="45.07741" lon="5.65531">
        <ele>342.1</ele>
        <time>2021-05-08T14:30:16Z</time>
      </trkpt>
      <trkpt lat="45.0776" lon="5.6556">
        <ele>340.9</ele>
        <time>2021-05-08T14:30:39Z</time>
      </trkpt>
      <trkpt lat="45.0778" lon="5.65591">
        <ele>339.6</ele>
        <time>2021-05-08T14:31:06Z</time>
      </trkpt>
      <trkpt lat="45.07799" lon="5.65619">
        <ele>339.1</ele>
        <time>2021-05-08T14:31:32Z</time>
      </trkpt>
      <trkpt lat="45.07815" lon="5.65647">
        <ele>338.5</ele>
        <time>2021-05-08T14:31:54Z</time>
      </trkpt>
      <trkpt lat="45.07834" lon="5.65672">
        <ele>338.5</ele>
        <time>2021-05-08T14:32:19Z</time>
      </trkpt>
      <trkpt lat="45.07853" lon="5.65703">
        <ele>336.7</ele>
        <time>2021-05-08T14:32:46Z</time>
      </trkpt>
      <trkpt lat="45.0787" lon="5.65728">
        <ele>335.6</ele>
        <time>2021-05-08T14:33:11Z</time>
      </trkpt>
      <trkpt lat="45.07887" lon="5.65746">
        <ele>335.6</ele>
        <time>2021-05-08T14:33:32Z</time>
      </trkpt>
      <trkpt lat="45.07901" lon="5.65769">
        <ele>335</ele>
        <time>2021-05-08T14:33:53Z</time>
      </trkpt>
      <trkpt lat="45.0792" lon="5.65808">
        <ele>333.3</ele>
        <time>2021-05-08T14:34:22Z</time>
      </trkpt>
      <trkpt lat="45.07937" lon="5.65833">
        <ele>332.2</ele>
        <time>2021-05-08T14:34:44Z</time>
      </trkpt>
      <trkpt lat="45.0796" lon="5.65842">
        <ele>332.5</ele>
        <time>2021-05-08T14:35:09Z</time>
      </trkpt>
      <trkpt lat="45.07973" lon="5.65857">
        <ele>331.3</ele>
        <time>2021-05-08T14:35:27Z</time>
      </trkpt>
      <trkpt lat="45.07975" lon="5.65858">
        <ele>331.2</ele>
        <time>2021-05-08T14:35:31Z</time>
      </trkpt>
      <trkpt lat="45.0798" lon="5.65868">
        <ele>330.1</ele>
        <time>2021-05-08T14:35:44Z</time>
      </trkpt>
      <trkpt lat="45.0799" lon="5.65867">
        <ele>330.6</ele>
        <time>2021-05-08T14:36:06Z</time>
      </trkpt>
      <trkpt lat="45.08016" lon="5.65873">
        <ele>331.4</ele>
        <time>2021-05-08T14:36:34Z</time>
      </trkpt>
      <trkpt lat="45.08023" lon="5.65875">
        <ele>331.6</ele>
        <time>2021-05-08T14:36:44Z</time>
      </trkpt>
      <trkpt lat="45.08042" lon="5.65893">
        <ele>331.1</ele>
        <time>2021-05-08T14:37:09Z</time>
      </trkpt>
      <trkpt lat="45.08059" lon="5.65913">
        <ele>330.7</ele>
        <time>2021-05-08T14:37:33Z</time>
      </trkpt>
      <trkpt lat="45.08077" lon="5.65935">
        <ele>329.5</ele>
        <time>2021-05-08T14:37:56Z</time>
      </trkpt>
      <trkpt lat="45.08099" lon="5.65951">
        <ele>327.8</ele>
        <time>2021-05-08T14:38:20Z</time>
      </trkpt>
      <trkpt lat="45.08117" lon="5.65965">
        <ele>325.6</ele>
        <time>2021-05-08T14:38:43Z</time>
      </trkpt>
      <trkpt lat="45.08139" lon="5.65968">
        <ele>325.4</ele>
        <time>2021-05-08T14:39:07Z</time>
      </trkpt>
      <trkpt lat="45.0816" lon="5.65975">
        <ele>324.5</ele>
        <time>2021-05-08T14:39:30Z</time>
      </trkpt>
      <trkpt lat="45.08181" lon="5.65988">
        <ele>324.7</ele>
        <time>2021-05-08T14:39:55Z</time>
      </trkpt>
      <trkpt lat="45.08207" lon="5.65999">
        <ele>326.5</ele>
        <time>2021-05-08T14:40:20Z</time>
      </trkpt>
      <trkpt lat="45.08234" lon="5.66016">
        <ele>327</ele>
        <time>2021-05-08T14:40:49Z</time>
      </trkpt>
      <trkpt lat="45.08262" lon="5.6603">
        <ele>325.7</ele>
        <time>2021-05-08T14:41:18Z</time>
      </trkpt>
      <trkpt lat="45.08286" lon="5.66019">
        <ele>326.8</ele>
        <time>2021-05-08T14:41:45Z</time>
      </trkpt>
      <trkpt lat="45.08304" lon="5.66021">
        <ele>325.6</ele>
        <time>2021-05-08T14:42:08Z</time>
      </trkpt>
      <trkpt lat="45.08337" lon="5.66023">
        <ele>324.6</ele>
        <time>2021-05-08T14:42:35Z</time>
      </trkpt>
      <trkpt lat="45.08354" lon="5.66022">
        <ele>326.5</ele>
        <time>2021-05-08T14:43:00Z</time>
      </trkpt>
      <trkpt lat="45.08376" lon="5.66023">
        <ele>328.8</ele>
        <time>2021-05-08T14:43:27Z</time>
      </trkpt>
      <trkpt lat="45.08398" lon="5.66026">
        <ele>330.9</ele>
        <time>2021-05-08T14:43:50Z</time>
      </trkpt>
      <trkpt lat="45.08422" lon="5.66031">
        <ele>332.3</ele>
        <time>2021-05-08T14:44:09Z</time>
      </trkpt>
      <trkpt lat="45.08433" lon="5.66046">
        <ele>329.8</ele>
        <time>2021-05-08T14:44:25Z</time>
      </trkpt>
      <trkpt lat="45.08442" lon="5.66048">
        <ele>329.5</ele>
        <time>2021-05-08T14:44:36Z</time>
      </trkpt>
      <trkpt lat="45.08455" lon="5.66048">
        <ele>329.5</ele>
        <time>2021-05-08T14:44:49Z</time>
      </trkpt>
      <trkpt lat="45.0846" lon="5.66043">
        <ele>330.4</ele>
        <time>2021-05-08T14:44:58Z</time>
      </trkpt>
      <trkpt lat="45.08468" lon="5.66032">
        <ele>332.8</ele>
        <time>2021-05-08T14:45:11Z</time>
      </trkpt>
      <trkpt lat="45.08477" lon="5.66023">
        <ele>334.9</ele>
        <time>2021-05-08T14:45:24Z</time>
      </trkpt>
      <trkpt lat="45.08484" lon="5.66021">
        <ele>335.6</ele>
        <time>2021-05-08T14:45:31Z</time>
      </trkpt>
      <trkpt lat="45.08495" lon="5.66017">
        <ele>336.8</ele>
        <time>2021-05-08T14:45:40Z</time>
      </trkpt>
      <trkpt lat="45.08515" lon="5.66021">
        <ele>336.6</ele>
        <time>2021-05-08T14:45:56Z</time>
      </trkpt>
      <trkpt lat="45.08531" lon="5.66024">
        <ele>336.5</ele>
        <time>2021-05-08T14:46:13Z</time>
      </trkpt>
      <trkpt lat="45.08549" lon="5.66027">
        <ele>336.4</ele>
        <time>2021-05-08T14:46:30Z</time>
      </trkpt>
      <trkpt lat="45.0856" lon="5.6603">
        <ele>336</ele>
        <time>2021-05-08T14:46:41Z</time>
      </trkpt>
      <trkpt lat="45.08573" lon="5.66033">
        <ele>335.5</ele>
        <time>2021-05-08T14:46:55Z</time>
      </trkpt>
      <trkpt lat="45.08587" lon="5.66035">
        <ele>335.5</ele>
        <time>2021-05-08T14:47:08Z</time>
      </trkpt>
      <trkpt lat="45.08606" lon="5.66038">
        <ele>335.8</ele>
        <time>2021-05-08T14:47:26Z</time>
      </trkpt>
      <trkpt lat="45.0862" lon="5.66046">
        <ele>334.6</ele>
        <time>2021-05-08T14:47:41Z</time>
      </trkpt>
      <trkpt lat="45.08634" lon="5.66058">
        <ele>332.3</ele>
        <time>2021-05-08T14:47:57Z</time>
      </trkpt>
      <trkpt lat="45.0864" lon="5.66067">
        <ele>330.1</ele>
        <time>2021-05-08T14:48:09Z</time>
      </trkpt>
      <trkpt lat="45.0865" lon="5.66079">
        <ele>327.6</ele>
        <time>2021-05-08T14:48:24Z</time>
      </trkpt>
      <trkpt lat="45.08666" lon="5.66092">
        <ele>326.9</ele>
        <time>2021-05-08T14:48:40Z</time>
      </trkpt>
      <trkpt lat="45.08669" lon="5.66097">
        <ele>326.6</ele>
        <time>2021-05-08T14:48:53Z</time>
      </trkpt>
      <trkpt lat="45.08672" lon="5.66099">
        <ele>326.9</ele>
        <time>2021-05-08T14:49:08Z</time>
      </trkpt>
      <trkpt lat="45.08673" lon="5.66102">
        <ele>326.7</ele>
        <time>2021-05-08T14:49:10Z</time>
      </trkpt>
      <trkpt lat="45.08677" lon="5.66114">
        <ele>325.8</ele>
        <time>2021-05-08T14:49:19Z</time>
      </trkpt>
      <trkpt lat="45.08677" lon="5.66138">
        <ele>322.9</ele>
        <time>2021-05-08T14:49:34Z</time>
      </trkpt>
      <trkpt lat="45.08678" lon="5.66152">
        <ele>321.3</ele>
        <time>2021-05-08T14:49:44Z</time>
      </trkpt>
      <trkpt lat="45.08675" lon="5.66167">
        <ele>319</ele>
        <time>2021-05-08T14:50:01Z</time>
      </trkpt>
      <trkpt lat="45.08671" lon="5.66181">
        <ele>317.2</ele>
        <time>2021-05-08T14:50:16Z</time>
      </trkpt>
      <trkpt lat="45.08664" lon="5.66204">
        <ele>314.3</ele>
        <time>2021-05-08T14:50:36Z</time>
      </trkpt>
      <trkpt lat="45.0866" lon="5.66228">
        <ele>311.9</ele>
        <time>2021-05-08T14:50:57Z</time>
      </trkpt>
      <trkpt lat="45.08659" lon="5.66246">
        <ele>310.1</ele>
        <time>2021-05-08T14:51:10Z</time>
      </trkpt>
      <trkpt lat="45.08659" lon="5.66262">
        <ele>308.3</ele>
        <time>2021-05-08T14:51:25Z</time>
      </trkpt>
      <trkpt lat="45.08661" lon="5.66279">
        <ele>306.2</ele>
        <time>2021-05-08T14:51:41Z</time>
      </trkpt>
      <trkpt lat="45.08663" lon="5.66293">
        <ele>304.7</ele>
        <time>2021-05-08T14:51:57Z</time>
      </trkpt>
      <trkpt lat="45.08664" lon="5.66297">
        <ele>304.2</ele>
        <time>2021-05-08T14:52:14Z</time>
      </trkpt>
      <trkpt lat="45.08665" lon="5.66297">
        <ele>304.3</ele>
        <time>2021-05-08T14:52:38Z</time>
      </trkpt>
      <trkpt lat="45.08663" lon="5.66299">
        <ele>303.9</ele>
        <time>2021-05-08T14:52:55Z</time>
      </trkpt>
      <trkpt lat="45.08662" lon="5.66301">
        <ele>303.6</ele>
        <time>2021-05-08T14:53:12Z</time>
      </trkpt>
      <trkpt lat="45.08663" lon="5.66302">
        <ele>303.6</ele>
        <time>2021-05-08T14:53:35Z</time>
      </trkpt>
      <trkpt lat="45.08663" lon="5.66307">
        <ele>302.9</ele>
        <time>2021-05-08T14:53:56Z</time>
      </trkpt>
      <trkpt lat="45.08662" lon="5.6631">
        <ele>302.6</ele>
        <time>2021-05-08T14:53:58Z</time>
      </trkpt>
      <trkpt lat="45.08657" lon="5.66333">
        <ele>299.4</ele>
        <time>2021-05-08T14:54:17Z</time>
      </trkpt>
      <trkpt lat="45.08652" lon="5.66354">
        <ele>297.7</ele>
        <time>2021-05-08T14:54:34Z</time>
      </trkpt>
      <trkpt lat="45.08647" lon="5.66372">
        <ele>296.4</ele>
        <time>2021-05-08T14:54:50Z</time>
      </trkpt>
      <trkpt lat="45.08641" lon="5.66392">
        <ele>294.9</ele>
        <time>2021-05-08T14:55:05Z</time>
      </trkpt>
      <trkpt lat="45.08637" lon="5.6641">
        <ele>293.7</ele>
        <time>2021-05-08T14:55:19Z</time>
      </trkpt>
      <trkpt lat="45.08627" lon="5.66432">
        <ele>292.7</ele>
        <time>2021-05-08T14:55:36Z</time>
      </trkpt>
      <trkpt lat="45.08613" lon="5.66455">
        <ele>291.9</ele>
        <time>2021-05-08T14:55:57Z</time>
      </trkpt>
      <trkpt lat="45.08603" lon="5.66472">
        <ele>291.5</ele>
        <time>2021-05-08T14:56:14Z</time>
      </trkpt>
      <trkpt lat="45.08597" lon="5.66488">
        <ele>291.2</ele>
        <time>2021-05-08T14:56:30Z</time>
      </trkpt>
      <trkpt lat="45.08593" lon="5.66498">
        <ele>291</ele>
        <time>2021-05-08T14:56:53Z</time>
      </trkpt>
      <trkpt lat="45.08587" lon="5.66513">
        <ele>290.7</ele>
        <time>2021-05-08T14:57:07Z</time>
      </trkpt>
      <trkpt lat="45.08582" lon="5.66526">
        <ele>290.4</ele>
        <time>2021-05-08T14:57:18Z</time>
      </trkpt>
      <trkpt lat="45.08574" lon="5.66548">
        <ele>289.8</ele>
        <time>2021-05-08T14:57:34Z</time>
      </trkpt>
      <trkpt lat="45.08568" lon="5.66568">
        <ele>289.4</ele>
        <time>2021-05-08T14:57:48Z</time>
      </trkpt>
      <trkpt lat="45.08556" lon="5.66594">
        <ele>288.9</ele>
        <time>2021-05-08T14:58:09Z</time>
      </trkpt>
      <trkpt lat="45.08543" lon="5.66622">
        <ele>288.8</ele>
        <time>2021-05-08T14:58:30Z</time>
      </trkpt>
      <trkpt lat="45.08534" lon="5.66646">
        <ele>288.7</ele>
        <time>2021-05-08T14:58:48Z</time>
      </trkpt>
      <trkpt lat="45.08527" lon="5.66669">
        <ele>288.7</ele>
        <time>2021-05-08T14:59:06Z</time>
      </trkpt>
      <trkpt lat="45.08521" lon="5.66688">
        <ele>288.7</ele>
        <time>2021-05-08T14:59:23Z</time>
      </trkpt>
      <trkpt lat="45.08516" lon="5.66701">
        <ele>288.7</ele>
        <time>2021-05-08T14:59:44Z</time>
      </trkpt>
      <trkpt lat="45.08511" lon="5.66708">
        <ele>288.8</ele>
        <time>2021-05-08T14:59:58Z</time>
      </trkpt>
      <trkpt lat="45.08506" lon="5.66708">
        <ele>288.9</ele>
        <time>2021-05-08T15:00:05Z</time>
      </trkpt>
      <trkpt lat="45.08504" lon="5.66707">
        <ele>288.9</ele>
        <time>2021-05-08T15:00:18Z</time>
      </trkpt>
      <trkpt lat="45.08505" lon="5.66708">
        <ele>288.9</ele>
        <time>2021-05-08T15:00:38Z</time>
      </trkpt>
      <trkpt lat="45.08504" lon="5.66708">
        <ele>288.9</ele>
        <time>2021-05-08T15:00:55Z</time>
      </trkpt>
      <trkpt lat="45.08505" lon="5.66706">
        <ele>288.9</ele>
        <time>2021-05-08T15:01:12Z</time>
      </trkpt>
      <trkpt lat="45.08495" lon="5.667">
        <ele>289.1</ele>
        <time>2021-05-08T15:01:26Z</time>
      </trkpt>
      <trkpt lat="45.08479" lon="5.66689">
        <ele>289.4</ele>
        <time>2021-05-08T15:01:44Z</time>
      </trkpt>
      <trkpt lat="45.08463" lon="5.66679">
        <ele>289.8</ele>
        <time>2021-05-08T15:02:01Z</time>
      </trkpt>
      <trkpt lat="45.08446" lon="5.66667">
        <ele>290.3</ele>
        <time>2021-05-08T15:02:20Z</time>
      </trkpt>
      <trkpt lat="45.08432" lon="5.66658">
        <ele>290.7</ele>
        <time>2021-05-08T15:02:37Z</time>
      </trkpt>
      <trkpt lat="45.08419" lon="5.66651">
        <ele>291.1</ele>
        <time>2021-05-08T15:02:51Z</time>
      </trkpt>
      <trkpt lat="45.08399" lon="5.66641">
        <ele>291.7</ele>
        <time>2021-05-08T15:03:11Z</time>
      </trkpt>
      <trkpt lat="45.08384" lon="5.66631">
        <ele>292</ele>
        <time>2021-05-08T15:03:28Z</time>
      </trkpt>
      <trkpt lat="45.08372" lon="5.66622">
        <ele>292.3</ele>
        <time>2021-05-08T15:03:46Z</time>
      </trkpt>
      <trkpt lat="45.08365" lon="5.66618">
        <ele>292.5</ele>
        <time>2021-05-08T15:04:01Z</time>
      </trkpt>
      <trkpt lat="45.08353" lon="5.66611">
        <ele>292.7</ele>
        <time>2021-05-08T15:04:19Z</time>
      </trkpt>
      <trkpt lat="45.08346" lon="5.66606">
        <ele>292.8</ele>
        <time>2021-05-08T15:04:27Z</time>
      </trkpt>
      <trkpt lat="45.08344" lon="5.66604">
        <ele>292.8</ele>
        <time>2021-05-08T15:04:30Z</time>
      </trkpt>
      <trkpt lat="45.08337" lon="5.66598">
        <ele>293</ele>
        <time>2021-05-08T15:04:42Z</time>
      </trkpt>
      <trkpt lat="45.08328" lon="5.66593">
        <ele>293.1</ele>
        <time>2021-05-08T15:04:52Z</time>
      </trkpt>
      <trkpt lat="45.08317" lon="5.66585">
        <ele>293.2</ele>
        <time>2021-05-08T15:05:02Z</time>
      </trkpt>
      <trkpt lat="45.0831" lon="5.66581">
        <ele>293.3</ele>
        <time>2021-05-08T15:05:12Z</time>
      </trkpt>
      <trkpt lat="45.08302" lon="5.66575">
        <ele>293.5</ele>
        <time>2021-05-08T15:05:21Z</time>
      </trkpt>
      <trkpt lat="45.08295" lon="5.66571">
        <ele>293.6</ele>
        <time>2021-05-08T15:05:30Z</time>
      </trkpt>
      <trkpt lat="45.08285" lon="5.66566">
        <ele>293.8</ele>
        <time>2021-05-08T15:05:39Z</time>
      </trkpt>
      <trkpt lat="45.08275" lon="5.66559">
        <ele>294</ele>
        <time>2021-05-08T15:05:50Z</time>
      </trkpt>
      <trkpt lat="45.08267" lon="5.66554">
        <ele>294.2</ele>
        <time>2021-05-08T15:06:00Z</time>
      </trkpt>
      <trkpt lat="45.08257" lon="5.66546">
        <ele>294.4</ele>
        <time>2021-05-08T15:06:10Z</time>
      </trkpt>
      <trkpt lat="45.0825" lon="5.66542">
        <ele>294.5</ele>
        <time>2021-05-08T15:06:20Z</time>
      </trkpt>
      <trkpt lat="45.08248" lon="5.66541">
        <ele>294.5</ele>
        <time>2021-05-08T15:06:21Z</time>
      </trkpt>
      <trkpt lat="45.08247" lon="5.66541">
        <ele>294.5</ele>
        <time>2021-05-08T15:06:22Z</time>
      </trkpt>
      <trkpt lat="45.08242" lon="5.66537">
        <ele>294.6</ele>
        <time>2021-05-08T15:06:28Z</time>
      </trkpt>
      <trkpt lat="45.08231" lon="5.66528">
        <ele>294.9</ele>
        <time>2021-05-08T15:06:41Z</time>
      </trkpt>
      <trkpt lat="45.08222" lon="5.66522">
        <ele>295.1</ele>
        <time>2021-05-08T15:06:51Z</time>
      </trkpt>
      <trkpt lat="45.08214" lon="5.66517">
        <ele>295.2</ele>
        <time>2021-05-08T15:07:01Z</time>
      </trkpt>
      <trkpt lat="45.08213" lon="5.66516">
        <ele>295.3</ele>
        <time>2021-05-08T15:07:02Z</time>
      </trkpt>
      <trkpt lat="45.08211" lon="5.66515">
        <ele>295.3</ele>
        <time>2021-05-08T15:07:03Z</time>
      </trkpt>
      <trkpt lat="45.08205" lon="5.66511">
        <ele>295.4</ele>
        <time>2021-05-08T15:07:12Z</time>
      </trkpt>
      <trkpt lat="45.082" lon="5.66508">
        <ele>295.5</ele>
        <time>2021-05-08T15:07:27Z</time>
      </trkpt>
      <trkpt lat="45.08192" lon="5.66502">
        <ele>295.7</ele>
        <time>2021-05-08T15:07:38Z</time>
      </trkpt>
      <trkpt lat="45.08183" lon="5.66495">
        <ele>296</ele>
        <time>2021-05-08T15:07:48Z</time>
      </trkpt>
      <trkpt lat="45.08178" lon="5.66492">
        <ele>296.2</ele>
        <time>2021-05-08T15:07:59Z</time>
      </trkpt>
      <trkpt lat="45.08171" lon="5.66485">
        <ele>296.5</ele>
        <time>2021-05-08T15:08:12Z</time>
      </trkpt>
      <trkpt lat="45.0816" lon="5.66479">
        <ele>296.9</ele>
        <time>2021-05-08T15:08:21Z</time>
      </trkpt>
      <trkpt lat="45.08154" lon="5.66474">
        <ele>297.3</ele>
        <time>2021-05-08T15:08:30Z</time>
      </trkpt>
      <trkpt lat="45.08146" lon="5.66466">
        <ele>297.7</ele>
        <time>2021-05-08T15:08:39Z</time>
      </trkpt>
      <trkpt lat="45.08138" lon="5.66458">
        <ele>298.2</ele>
        <time>2021-05-08T15:08:49Z</time>
      </trkpt>
      <trkpt lat="45.08135" lon="5.66453">
        <ele>298.4</ele>
        <time>2021-05-08T15:08:58Z</time>
      </trkpt>
      <trkpt lat="45.0813" lon="5.66445">
        <ele>298.9</ele>
        <time>2021-05-08T15:09:08Z</time>
      </trkpt>
      <trkpt lat="45.08128" lon="5.66444">
        <ele>299</ele>
        <time>2021-05-08T15:09:10Z</time>
      </trkpt>
      <trkpt lat="45.08127" lon="5.66443">
        <ele>299</ele>
        <time>2021-05-08T15:09:11Z</time>
      </trkpt>
      <trkpt lat="45.0812" lon="5.66434">
        <ele>299.5</ele>
        <time>2021-05-08T15:09:21Z</time>
      </trkpt>
      <trkpt lat="45.08114" lon="5.66426">
        <ele>299.9</ele>
        <time>2021-05-08T15:09:31Z</time>
      </trkpt>
      <trkpt lat="45.08108" lon="5.66416">
        <ele>300.4</ele>
        <time>2021-05-08T15:09:42Z</time>
      </trkpt>
      <trkpt lat="45.08099" lon="5.66403">
        <ele>301.1</ele>
        <time>2021-05-08T15:09:55Z</time>
      </trkpt>
      <trkpt lat="45.08091" lon="5.66391">
        <ele>301.7</ele>
        <time>2021-05-08T15:10:11Z</time>
      </trkpt>
      <trkpt lat="45.08091" lon="5.6639">
        <ele>301.7</ele>
        <time>2021-05-08T15:10:12Z</time>
      </trkpt>
      <trkpt lat="45.08086" lon="5.66379">
        <ele>302.3</ele>
        <time>2021-05-08T15:10:24Z</time>
      </trkpt>
      <trkpt lat="45.08078" lon="5.66369">
        <ele>302.8</ele>
        <time>2021-05-08T15:10:35Z</time>
      </trkpt>
      <trkpt lat="45.08075" lon="5.66366">
        <ele>302.9</ele>
        <time>2021-05-08T15:10:40Z</time>
      </trkpt>
      <trkpt lat="45.08066" lon="5.66363">
        <ele>303.2</ele>
        <time>2021-05-08T15:10:51Z</time>
      </trkpt>
      <trkpt lat="45.08058" lon="5.66358">
        <ele>303.4</ele>
        <time>2021-05-08T15:11:01Z</time>
      </trkpt>
      <trkpt lat="45.08051" lon="5.66351">
        <ele>303.7</ele>
        <time>2021-05-08T15:11:12Z</time>
      </trkpt>
      <trkpt lat="45.0804" lon="5.66342">
        <ele>304.2</ele>
        <time>2021-05-08T15:11:28Z</time>
      </trkpt>
      <trkpt lat="45.08036" lon="5.66339">
        <ele>304.4</ele>
        <time>2021-05-08T15:11:42Z</time>
      </trkpt>
    </trkseg>
  </trk>
</gpx>